Time;durP1;ratioP1;P1;durP2;ratioP2;P2;SDS_P1;SDS_P2;PMS_P1;PMS_P2;Temp;Humidity;BMP_temperature;BMP_pressure;BME280_temperature;BME280_humidity;BME280_pressure;Samples;Min_cycle;Max_cycle;Signal;HPM_P1;HPM_P2
2021/08/01 00:01:27;;;;;;;1.70;1.60;;;;;;;23.45;100.00;96788.28;5006847;28;20226;-71
2021/08/01 00:03:54;;;;;;;2.23;2.00;;;;;;;23.36;100.00;96773.66;5004590;28;20236;-69
2021/08/01 00:06:24;;;;;;;2.67;2.00;;;;;;;23.12;100.00;96722.09;4983048;28;20297;-71
2021/08/01 00:08:50;;;;;;;3.73;1.90;;;;;;;23.45;100.00;96784.84;5001018;28;20652;-67
2021/08/01 00:11:17;;;;;;;1.90;1.70;;;;;;;23.45;100.00;96788.28;5002364;28;20206;-70
2021/08/01 00:13:43;;;;;;;3.17;1.97;;;;;;;23.20;100.00;96738.41;4996676;28;20229;-68
2021/08/01 00:16:10;;;;;;;1.47;1.37;;;;;;;23.45;100.00;96783.16;4996784;28;20262;-73
2021/08/01 00:18:37;;;;;;;2.20;2.00;;;;;;;23.35;100.00;96753.13;5000008;28;20269;-69
2021/08/01 00:21:04;;;;;;;1.93;1.70;;;;;;;23.46;100.00;96776.31;4996821;28;20292;-68
2021/08/01 00:23:30;;;;;;;1.80;1.70;;;;;;;23.44;100.00;96766.03;4987496;28;20250;-68
2021/08/01 00:25:57;;;;;;;2.00;1.80;;;;;;;23.36;100.00;96752.28;5006339;28;20241;-73
2021/08/01 00:28:24;;;;;;;1.83;1.70;;;;;;;23.46;100.00;96771.19;5005527;28;20297;-69
2021/08/01 00:30:51;;;;;;;3.10;1.93;;;;;;;23.24;100.00;96729.09;4997309;28;20898;-73
2021/08/01 00:33:17;;;;;;;1.97;1.67;;;;;;;23.46;100.00;96772.03;5000219;28;20710;-70
2021/08/01 00:35:44;;;;;;;3.27;2.03;;;;;;;22.61;100.00;96637.00;5008144;28;20644;-70
2021/08/01 00:38:10;;;;;;;2.10;1.90;;;;;;;23.47;100.00;96775.47;5010117;28;20730;-69
2021/08/01 00:40:37;;;;;;;2.10;1.90;;;;;;;22.65;100.00;96648.97;5008816;28;20253;-70
2021/08/01 00:43:04;;;;;;;1.90;1.80;;;;;;;23.31;100.00;96748.81;5012322;28;20276;-72
2021/08/01 00:45:30;;;;;;;1.77;1.67;;;;;;;23.17;100.00;96735.81;5007853;28;20734;-70
2021/08/01 00:47:57;;;;;;;1.90;1.80;;;;;;;23.46;100.00;96774.59;5001895;28;20884;-68
2021/08/01 00:50:23;;;;;;;1.80;1.70;;;;;;;22.67;100.00;96634.50;5010305;28;20771;-69
2021/08/01 00:52:51;;;;;;;2.20;2.00;;;;;;;23.46;100.00;96772.03;4987308;28;20282;-68
2021/08/01 00:55:17;;;;;;;2.60;1.60;;;;;;;23.48;100.00;96774.63;5011081;28;20640;-70
2021/08/01 00:57:44;;;;;;;2.40;1.90;;;;;;;23.39;100.00;96760.84;5010563;28;20212;-68
2021/08/01 01:02:57;;;;;;;2.63;1.90;;;;;;;23.47;100.00;96778.88;5007577;28;20254;-68
2021/08/01 01:05:31;;;;;;;2.10;1.83;;;;;;;23.47;100.00;96773.75;4989519;28;20210;-68
2021/08/01 01:08:08;;;;;;;1.80;1.70;;;;;;;23.38;100.00;96757.44;4992347;28;20662;-72
2021/08/01 01:10:41;;;;;;;2.07;1.80;;;;;;;23.48;100.00;96779.75;4982477;28;20237;-69
2021/08/01 01:13:12;;;;;;;1.90;1.70;;;;;;;23.17;100.00;96719.56;4987449;28;20214;-72
2021/08/01 01:15:46;;;;;;;1.60;1.50;;;;;;;23.45;100.00;96756.66;4984701;28;20252;-69
2021/08/01 01:18:15;;;;;;;2.20;1.83;;;;;;;23.46;100.00;96758.34;4975224;28;20257;-69
2021/08/01 01:21:14;;;;;;;1.83;1.73;;;;;;;23.47;100.00;96755.81;5010203;28;20233;-69
2021/08/01 01:23:47;;;;;;;1.70;1.60;;;;;;;23.48;100.00;96756.69;4957168;28;20273;-73
2021/08/01 01:26:16;;;;;;;1.80;1.70;;;;;;;23.48;100.00;96759.25;4998496;28;20300;-69
2021/08/01 01:29:08;;;;;;;2.37;1.60;;;;;;;23.25;100.00;96731.69;5002605;28;20261;-69
2021/08/01 01:31:47;;;;;;;2.53;1.60;;;;;;;23.48;100.00;96777.19;4956702;28;20238;-68
2021/08/01 01:34:41;;;;;;;3.20;1.70;;;;;;;23.21;100.00;96740.13;5008596;28;20213;-70
2021/08/01 01:37:09;;;;;;;1.60;1.50;;;;;;;23.31;100.00;96764.19;4990675;28;20237;-69
2021/08/01 01:39:37;;;;;;;2.13;1.53;;;;;;;23.47;100.00;96790.88;5007450;28;20781;-69
2021/08/01 01:42:05;;;;;;;1.80;1.70;;;;;;;23.33;100.00;96767.66;4982005;28;20597;-69
2021/08/01 01:44:33;;;;;;;1.70;1.60;;;;;;;23.47;100.00;96784.00;4974397;28;20285;-70
2021/08/01 01:46:59;;;;;;;1.67;1.57;;;;;;;23.35;100.00;96753.13;4994898;28;20241;-72
2021/08/01 01:49:26;;;;;;;2.77;2.07;;;;;;;22.68;100.00;96648.16;4987232;28;20230;-70
2021/08/01 01:51:53;;;;;;;2.10;1.90;;;;;;;23.30;100.00;96755.63;4986981;28;20233;-70
2021/08/01 01:54:19;;;;;;;1.60;1.50;;;;;;;23.09;100.00;96709.25;4979863;28;20292;-68
2021/08/01 01:56:46;;;;;;;1.77;1.67;;;;;;;23.39;100.00;96760.03;4992018;28;20230;-74
2021/08/01 01:59:12;;;;;;;1.97;1.77;;;;;;;23.48;100.00;96779.75;4988442;28;20309;-69
2021/08/01 02:01:39;;;;;;;2.07;1.87;;;;;;;23.48;100.00;96774.63;4993734;28;20206;-71
2021/08/01 02:04:06;;;;;;;1.80;1.70;;;;;;;23.13;100.00;96708.44;5003795;28;20604;-71
2021/08/01 02:06:33;;;;;;;1.90;1.80;;;;;;;23.25;100.00;96724.00;5000336;28;20289;-69
2021/08/01 02:09:06;;;;;;;1.70;1.60;;;;;;;23.48;100.00;96752.41;4973756;28;20909;-69
2021/08/01 02:11:52;;;;;;;1.80;1.70;;;;;;;23.13;100.00;96672.56;4996752;28;20233;-72
2021/08/01 02:14:41;;;;;;;2.23;1.80;;;;;;;23.45;100.00;96729.31;4981673;28;20316;-74
2021/08/01 02:17:10;;;;;;;2.07;1.60;;;;;;;23.48;100.00;96719.06;4996796;28;20202;-70
2021/08/01 02:19:38;;;;;;;1.83;1.70;;;;;;;22.12;100.00;96488.81;5096519;23;20265;-64
2021/08/01 02:22:05;;;;;;;2.23;1.90;;;;;;;23.48;100.00;96726.78;5003154;28;20253;-65
2021/08/01 02:24:32;;;;;;;1.90;1.80;;;;;;;23.43;100.00;96736.13;4997585;28;20297;-66
2021/08/01 02:26:59;;;;;;;1.50;1.40;;;;;;;23.48;100.00;96748.97;5001117;28;20217;-66
2021/08/01 02:29:25;;;;;;;1.73;1.63;;;;;;;23.48;100.00;96754.97;5008105;28;20648;-66
2021/08/01 02:31:52;;;;;;;1.90;1.80;;;;;;;23.49;100.00;96743.00;5020697;28;20297;-67
2021/08/01 02:34:19;;;;;;;3.07;1.50;;;;;;;23.48;100.00;96729.34;4996892;28;20213;-65
2021/08/01 02:36:45;;;;;;;1.57;1.47;;;;;;;23.49;100.00;96723.34;4998585;28;20648;-66
2021/08/01 02:39:12;;;;;;;2.27;1.60;;;;;;;23.49;100.00;96714.78;5021487;28;20265;-66
2021/08/01 02:41:39;;;;;;;1.83;1.70;;;;;;;23.49;100.00;96707.09;4999640;28;20675;-65
2021/08/01 02:44:20;;;;;;;1.90;1.60;;;;;;;23.35;100.00;96650.56;4997112;28;20685;-65
2021/08/01 02:46:46;;;;;;;1.63;1.53;;;;;;;23.49;100.00;96668.63;4982448;28;20684;-65
2021/08/01 02:49:18;;;;;;;1.73;1.63;;;;;;;23.49;100.00;96686.56;4997778;28;20257;-67
2021/08/01 02:51:46;;;;;;;2.03;1.73;;;;;;;23.49;100.00;96678.88;4996813;28;20289;-66
2021/08/01 02:54:13;;;;;;;1.83;1.63;;;;;;;23.50;100.00;96675.50;4982632;28;20238;-65
2021/08/01 02:56:41;;;;;;;1.83;1.73;;;;;;;23.49;100.00;96653.22;4997056;28;20245;-65
2021/08/01 02:59:07;;;;;;;2.00;1.77;;;;;;;23.49;100.00;96646.41;4995007;28;20222;-66
2021/08/01 03:01:34;;;;;;;1.77;1.50;;;;;;;23.44;100.00;96626.72;5007361;28;20294;-66
2021/08/01 03:04:01;;;;;;;2.00;1.70;;;;;;;23.29;100.00;96596.66;4997113;28;20268;-65
2021/08/01 03:06:34;;;;;;;1.90;1.80;;;;;;;23.50;100.00;96639.59;5000661;28;20230;-65
2021/08/01 03:09:04;;;;;;;1.60;1.50;;;;;;;23.49;100.00;96638.72;4994043;28;20317;-66
2021/08/01 03:11:34;;;;;;;1.67;1.57;;;;;;;23.45;100.00;96621.59;5007765;28;20214;-63
2021/08/01 03:14:01;;;;;;;2.03;1.83;;;;;;;23.49;100.00;96607.06;5006395;28;20604;-66
2021/08/01 03:16:28;;;;;;;1.70;1.53;;;;;;;23.49;100.00;96595.13;5007673;28;20797;-66
2021/08/01 03:18:54;;;;;;;2.73;1.80;;;;;;;23.50;100.00;96601.13;5007806;28;20229;-65
2021/08/01 03:21:21;;;;;;;1.60;1.50;;;;;;;23.49;100.00;96590.00;4996231;28;20233;-65
2021/08/01 03:23:47;;;;;;;1.60;1.50;;;;;;;23.50;100.00;96593.41;5005646;28;20321;-66
2021/08/01 03:26:14;;;;;;;1.60;1.50;;;;;;;23.50;100.00;96594.25;5007512;28;20704;-66
2021/08/01 03:28:41;;;;;;;1.63;1.53;;;;;;;23.49;100.00;96584.88;5007070;28;20734;-65
2021/08/01 03:31:07;;;;;;;1.80;1.70;;;;;;;23.49;100.00;96581.44;5008071;28;20295;-65
2021/08/01 03:33:34;;;;;;;2.03;1.70;;;;;;;23.50;100.00;96589.13;5007518;28;20199;-65
2021/08/01 03:36:00;;;;;;;1.80;1.70;;;;;;;23.42;100.00;96578.81;5007361;28;20325;-65
2021/08/01 03:38:27;;;;;;;1.53;1.43;;;;;;;23.44;100.00;96596.78;5007155;28;20234;-63
2021/08/01 03:40:53;;;;;;;1.70;1.60;;;;;;;23.50;100.00;96619.06;5000984;28;20336;-65
2021/08/01 03:43:20;;;;;;;2.33;1.47;;;;;;;23.49;100.00;96623.31;5006768;28;20262;-65
2021/08/01 03:45:46;;;;;;;1.80;1.70;;;;;;;23.36;100.00;96631.78;5007417;28;20241;-66
2021/08/01 03:48:13;;;;;;;2.10;1.70;;;;;;;23.50;100.00;96678.91;5006872;28;20234;-68
2021/08/01 03:50:40;;;;;;;3.60;1.80;;;;;;;23.49;100.00;96694.28;5007002;28;20322;-66
2021/08/01 03:53:06;;;;;;;1.80;1.70;;;;;;;23.51;100.00;96695.16;5006639;28;20280;-65
2021/08/01 03:55:33;;;;;;;1.60;1.50;;;;;;;23.51;100.00;96703.72;5007032;28;20668;-65
2021/08/01 03:58:00;;;;;;;1.57;1.47;;;;;;;23.50;100.00;96704.53;5002245;28;20244;-67
2021/08/01 04:00:26;;;;;;;1.60;1.50;;;;;;;23.50;100.00;96709.66;5010365;28;20341;-66
2021/08/01 04:02:53;;;;;;;2.03;1.70;;;;;;;23.51;100.00;96708.84;5006741;28;21582;-65
2021/08/01 04:05:20;;;;;;;2.00;1.63;;;;;;;23.50;100.00;96713.97;5006674;28;20676;-65
2021/08/01 04:07:46;;;;;;;1.50;1.40;;;;;;;23.46;100.00;96722.44;5008000;28;20206;-67
2021/08/01 04:10:13;;;;;;;1.70;1.60;;;;;;;23.50;100.00;96735.31;5006149;28;20318;-67
2021/08/01 04:12:40;;;;;;;1.80;1.70;;;;;;;22.48;100.00;96567.66;5007546;28;20666;-65
2021/08/01 04:15:07;;;;;;;1.60;1.50;;;;;;;23.50;100.00;96743.00;5007279;28;20264;-65
2021/08/01 04:17:34;;;;;;;1.70;1.60;;;;;;;23.50;100.00;96737.03;5006974;28;20641;-65
2021/08/01 04:20:00;;;;;;;2.40;1.73;;;;;;;23.51;100.00;96741.31;5006597;28;20226;-68
2021/08/01 04:22:27;;;;;;;2.03;1.83;;;;;;;23.50;100.00;96735.31;5006388;28;20950;-65
2021/08/01 04:24:54;;;;;;;1.63;1.50;;;;;;;22.56;100.00;96566.09;5006768;28;20233;-66
2021/08/01 04:27:20;;;;;;;1.67;1.57;;;;;;;23.50;100.00;96731.91;5006478;28;20241;-67
2021/08/01 04:29:47;;;;;;;3.30;1.70;;;;;;;23.51;100.00;96736.19;5006427;28;20305;-66
2021/08/01 04:32:13;;;;;;;1.70;1.60;;;;;;;23.50;100.00;96750.69;5006969;28;20285;-66
2021/08/01 04:34:40;;;;;;;3.10;1.60;;;;;;;23.50;100.00;96753.25;5006471;28;20229;-65
2021/08/01 04:37:06;;;;;;;1.80;1.70;;;;;;;23.49;100.00;96761.81;5005665;28;20230;-67
2021/08/01 04:39:33;;;;;;;1.70;1.60;;;;;;;22.77;100.00;96640.59;5007112;28;20260;-64
2021/08/01 04:41:59;;;;;;;1.93;1.80;;;;;;;23.51;100.00;96764.41;5003076;28;20244;-65
2021/08/01 04:44:26;;;;;;;1.60;1.50;;;;;;;23.51;100.00;96761.84;5006905;28;20226;-66
2021/08/01 04:46:53;;;;;;;1.57;1.47;;;;;;;23.51;100.00;96764.41;4999107;28;20668;-65
2021/08/01 04:49:19;;;;;;;1.83;1.67;;;;;;;23.51;100.00;96751.56;5006171;28;20687;-65
2021/08/01 04:51:46;;;;;;;1.50;1.40;;;;;;;23.50;100.00;96760.13;5006665;28;20642;-66
2021/08/01 04:54:12;;;;;;;1.70;1.60;;;;;;;23.51;100.00;96772.09;5006761;28;21004;-66
2021/08/01 04:56:43;;;;;;;1.70;1.60;;;;;;;22.76;100.00;96646.53;5006963;28;20293;-65
2021/08/01 04:59:10;;;;;;;1.60;1.50;;;;;;;23.03;100.00;96696.38;4997121;28;20243;-66
2021/08/01 05:01:37;;;;;;;1.63;1.53;;;;;;;22.25;100.00;96561.44;4996653;28;20245;-66
2021/08/01 05:04:04;;;;;;;2.30;1.80;;;;;;;23.50;100.00;96778.06;5006283;28;20257;-65
2021/08/01 05:06:30;;;;;;;1.80;1.70;;;;;;;23.13;100.00;96726.41;5006714;28;20302;-66
2021/08/01 05:08:57;;;;;;;1.63;1.53;;;;;;;23.50;100.00;96781.47;5007380;28;20303;-66
2021/08/01 05:11:24;;;;;;;1.50;1.40;;;;;;;23.50;100.00;96794.31;5006120;28;20215;-65
2021/08/01 05:13:50;;;;;;;1.60;1.50;;;;;;;23.50;100.00;96802.00;5006168;28;20721;-65
2021/08/01 05:16:17;;;;;;;1.63;1.53;;;;;;;23.50;100.00;96817.38;5006164;28;20290;-65
2021/08/01 05:18:44;;;;;;;1.60;1.50;;;;;;;23.50;100.00;96816.53;5006386;28;20205;-67
2021/08/01 05:21:11;;;;;;;1.73;1.63;;;;;;;23.50;100.00;96817.38;5005229;28;20301;-66
2021/08/01 05:23:38;;;;;;;1.40;1.30;;;;;;;23.01;100.00;96730.53;5005919;28;20313;-65
2021/08/01 05:26:04;;;;;;;1.77;1.67;;;;;;;23.47;100.00;96801.13;5009396;28;20244;-67
2021/08/01 05:28:31;;;;;;;1.50;1.40;;;;;;;22.80;100.00;96684.16;5008564;28;20234;-65
2021/08/01 05:30:58;;;;;;;1.70;1.60;;;;;;;23.42;100.00;96796.78;5009497;28;20222;-65
2021/08/01 05:33:24;;;;;;;1.70;1.60;;;;;;;23.41;100.00;96791.66;5009062;28;20297;-66
2021/08/01 05:35:51;;;;;;;1.70;1.60;;;;;;;23.41;100.00;96801.06;5009642;28;20850;-65
2021/08/01 05:38:17;;;;;;;1.67;1.57;;;;;;;23.31;100.00;96777.03;5009888;28;20293;-67
2021/08/01 05:40:44;;;;;;;1.47;1.37;;;;;;;23.40;100.00;96800.19;5009161;28;20257;-65
2021/08/01 05:43:11;;;;;;;1.50;1.40;;;;;;;23.41;100.00;96812.16;5008851;28;20254;-65
2021/08/01 05:45:37;;;;;;;1.60;1.50;;;;;;;22.41;100.00;96630.75;5007220;28;20214;-65
2021/08/01 05:48:04;;;;;;;1.93;1.60;;;;;;;23.30;100.00;96788.97;5009712;28;20252;-66
2021/08/01 05:50:31;;;;;;;1.50;1.40;;;;;;;23.37;100.00;96805.28;5009245;28;20261;-65
2021/08/01 05:52:57;;;;;;;1.60;1.50;;;;;;;23.42;100.00;96823.28;4994685;28;20414;-62
2021/08/01 05:55:24;;;;;;;1.70;1.60;;;;;;;23.42;100.00;96813.03;5006978;28;20241;-65
2021/08/01 05:57:50;;;;;;;1.63;1.53;;;;;;;23.42;100.00;96821.59;4991729;28;20692;-66
2021/08/01 06:00:17;;;;;;;1.70;1.60;;;;;;;23.27;100.00;96793.22;5008457;28;20321;-65
2021/08/01 06:02:43;;;;;;;1.70;1.60;;;;;;;23.42;100.00;96819.03;5008006;28;20293;-65
2021/08/01 06:05:11;;;;;;;1.50;1.40;;;;;;;23.43;100.00;96823.31;5008760;28;20202;-65
2021/08/01 06:07:38;;;;;;;1.70;1.60;;;;;;;23.42;100.00;96821.59;5008751;28;20743;-66
2021/08/01 06:10:05;;;;;;;1.43;1.33;;;;;;;23.42;100.00;96831.84;5004797;28;20269;-65
2021/08/01 06:12:31;;;;;;;1.67;1.57;;;;;;;23.43;100.00;96838.69;5008561;28;20234;-66
2021/08/01 06:14:58;;;;;;;1.50;1.40;;;;;;;23.42;100.00;96836.97;5008572;28;20198;-65
2021/08/01 06:17:25;;;;;;;1.60;1.50;;;;;;;23.38;100.00;96831.81;4990699;28;20620;-66
2021/08/01 06:19:55;;;;;;;1.60;1.50;;;;;;;23.42;100.00;96834.41;5018738;28;20323;-67
2021/08/01 06:22:25;;;;;;;1.70;1.60;;;;;;;23.43;100.00;96838.69;5007123;28;20659;-67
2021/08/01 06:24:52;;;;;;;1.70;1.60;;;;;;;23.43;100.00;96846.38;4991060;28;20309;-66
2021/08/01 06:27:18;;;;;;;1.77;1.67;;;;;;;23.42;100.00;96844.69;5007217;28;20237;-66
2021/08/01 06:29:45;;;;;;;1.73;1.63;;;;;;;23.42;100.00;96850.63;5007993;28;20257;-65
2021/08/01 06:32:11;;;;;;;2.27;2.07;;;;;;;23.42;100.00;96858.34;5007536;28;20234;-65
2021/08/01 06:34:38;;;;;;;2.00;1.90;;;;;;;23.42;100.00;96859.19;5007064;28;20869;-65
2021/08/01 06:37:04;;;;;;;2.10;1.90;;;;;;;22.93;100.00;96770.56;5008214;28;20297;-65
2021/08/01 06:39:31;;;;;;;3.20;2.00;;;;;;;23.41;100.00;96857.47;5021000;28;20321;-66
2021/08/01 06:41:58;;;;;;;2.77;1.87;;;;;;;23.35;100.00;96848.00;5005802;28;20238;-65
2021/08/01 06:44:24;;;;;;;2.20;2.00;;;;;;;23.36;100.00;96860.81;5016955;28;20258;-65
2021/08/01 06:46:51;;;;;;;2.03;1.93;;;;;;;23.35;100.00;96865.94;5006898;28;20291;-66
2021/08/01 06:49:18;;;;;;;2.23;2.03;;;;;;;23.32;100.00;96866.78;5005628;28;20236;-66
2021/08/01 06:52:04;;;;;;;2.30;2.10;;;;;;;23.32;100.00;96861.66;4994611;28;20214;-66
2021/08/01 06:54:31;;;;;;;2.57;2.27;;;;;;;23.31;100.00;96861.63;5008398;28;20259;-65
2021/08/01 06:56:57;;;;;;;4.07;2.27;;;;;;;23.32;100.00;96860.78;5006509;28;20309;-65
2021/08/01 06:59:24;;;;;;;2.20;2.00;;;;;;;23.31;100.00;96859.94;5007903;28;20321;-66
2021/08/01 07:01:50;;;;;;;2.53;2.30;;;;;;;23.31;100.00;96867.63;5006380;28;20643;-65
2021/08/01 07:04:17;;;;;;;2.47;2.27;;;;;;;23.32;100.00;96868.47;5007995;28;20230;-65
2021/08/01 07:06:45;;;;;;;3.60;2.40;;;;;;;23.32;100.00;96871.91;5008171;28;20699;-65
2021/08/01 07:09:12;;;;;;;2.50;2.30;;;;;;;23.31;100.00;96877.88;5008465;28;20274;-65
2021/08/01 07:11:38;;;;;;;2.40;2.20;;;;;;;23.31;100.00;96877.88;5007052;28;20202;-65
2021/08/01 07:14:06;;;;;;;3.60;2.50;;;;;;;23.31;100.00;96879.56;5007822;28;20244;-65
2021/08/01 07:16:33;;;;;;;2.53;2.33;;;;;;;23.30;100.00;96871.00;5007236;28;20202;-66
2021/08/01 07:19:01;;;;;;;2.67;2.47;;;;;;;23.30;100.00;96853.06;5005618;28;20258;-65
2021/08/01 07:21:27;;;;;;;2.73;2.53;;;;;;;23.30;100.00;96857.34;5000800;28;20340;-67
2021/08/01 07:23:54;;;;;;;5.67;2.63;;;;;;;23.30;100.00;96857.34;5007599;28;20253;-65
2021/08/01 07:26:20;;;;;;;2.73;2.53;;;;;;;23.05;100.00;96814.28;5007906;28;20639;-65
2021/08/01 07:28:47;;;;;;;3.07;2.20;;;;;;;23.29;100.00;96861.63;4992719;28;20241;-65
2021/08/01 07:31:13;;;;;;;2.87;2.50;;;;;;;23.30;100.00;96865.88;5007578;28;20242;-65
2021/08/01 07:33:40;;;;;;;2.40;2.20;;;;;;;23.29;100.00;96865.88;5005839;28;20204;-67
2021/08/01 07:36:07;;;;;;;2.00;1.90;;;;;;;23.30;100.00;96862.47;5001095;28;20294;-65
2021/08/01 07:38:33;;;;;;;2.10;1.90;;;;;;;23.29;100.00;96864.19;5007176;28;20234;-65
2021/08/01 07:41:00;;;;;;;2.93;2.10;;;;;;;23.29;100.00;96865.88;5006730;28;20202;-65
2021/08/01 07:43:27;;;;;;;3.37;2.03;;;;;;;23.28;100.00;96867.59;5004478;28;20293;-66
2021/08/01 07:45:53;;;;;;;2.20;2.00;;;;;;;23.28;100.00;96859.91;4999709;28;20238;-66
2021/08/01 07:48:20;;;;;;;2.43;1.93;;;;;;;23.29;100.00;96850.47;5006421;28;20206;-65
2021/08/01 07:50:46;;;;;;;2.80;1.93;;;;;;;23.28;100.00;96847.09;5005972;28;20345;-66
2021/08/01 07:53:13;;;;;;;2.57;2.10;;;;;;;23.28;99.89;96846.22;5005654;28;20240;-66
2021/08/01 07:55:42;;;;;;;2.70;2.07;;;;;;;23.27;100.00;96863.28;5006467;28;20738;-65
2021/08/01 07:58:08;;;;;;;2.30;2.10;;;;;;;23.28;100.00;96859.03;5006277;28;20249;-65
2021/08/01 08:00:35;;;;;;;2.23;2.00;;;;;;;23.27;100.00;96849.63;4998198;28;20261;-65
2021/08/01 08:03:02;;;;;;;2.23;2.10;;;;;;;23.27;100.00;96842.78;5006476;28;20324;-66
2021/08/01 08:05:28;;;;;;;2.67;2.17;;;;;;;23.27;100.00;96849.63;5006393;28;20304;-65
2021/08/01 08:07:55;;;;;;;2.50;2.30;;;;;;;23.27;100.00;96852.19;5007893;28;20301;-65
2021/08/01 08:10:22;;;;;;;2.33;2.10;;;;;;;23.26;100.00;96855.56;5006603;28;20673;-65
2021/08/01 08:12:49;;;;;;;2.33;2.13;;;;;;;23.26;100.00;96864.13;5006364;28;20237;-65
2021/08/01 08:15:16;;;;;;;2.20;2.00;;;;;;;23.26;100.00;96871.84;4996333;28;20293;-65
2021/08/01 08:17:43;;;;;;;2.30;2.10;;;;;;;23.25;100.00;96877.81;5007021;28;20289;-65
2021/08/01 08:20:10;;;;;;;2.53;2.20;;;;;;;23.21;100.00;96873.44;5119022;22;20253;-66
2021/08/01 08:22:37;;;;;;;3.03;2.27;;;;;;;22.81;100.00;96804.59;5002480;28;20341;-63
2021/08/01 08:25:05;;;;;;;2.30;2.10;;;;;;;23.25;100.00;96882.06;4993691;28;20229;-66
2021/08/01 08:27:31;;;;;;;2.53;2.33;;;;;;;22.93;100.00;96834.63;5014065;28;20203;-66
2021/08/01 08:29:58;;;;;;;2.47;2.10;;;;;;;23.24;100.00;96890.59;4996529;28;20249;-66
2021/08/01 08:32:25;;;;;;;2.27;1.83;;;;;;;23.18;100.00;96891.34;5007717;28;20211;-66
2021/08/01 08:34:51;;;;;;;2.20;2.07;;;;;;;23.22;100.00;96899.94;5012047;28;20289;-66
2021/08/01 08:37:18;;;;;;;2.27;2.00;;;;;;;22.91;100.00;96849.97;5011624;28;20234;-69
2021/08/01 08:39:44;;;;;;;2.00;1.90;;;;;;;23.19;100.00;96890.53;4996215;28;20282;-66
2021/08/01 08:42:13;;;;;;;2.07;1.80;;;;;;;23.18;100.00;96887.94;5007213;28;20230;-66
2021/08/01 08:44:40;;;;;;;3.00;2.00;;;;;;;22.29;100.00;96735.53;4995977;28;20868;-66
2021/08/01 08:47:06;;;;;;;1.90;1.80;;;;;;;23.06;100.00;96878.38;5006426;28;20217;-66
2021/08/01 08:49:35;;;;;;;2.13;2.00;;;;;;;23.08;100.00;96883.50;5013359;28;20306;-66
2021/08/01 08:52:05;;;;;;;2.17;1.97;;;;;;;23.15;100.00;96893.03;4987104;28;20740;-65
2021/08/01 08:54:45;;;;;;;2.40;2.17;;;;;;;23.14;100.00;96889.59;4995519;28;20229;-66
2021/08/01 08:57:21;;;;;;;2.13;2.03;;;;;;;23.15;100.00;96887.91;5015435;28;20304;-66
2021/08/01 08:59:50;;;;;;;2.40;2.20;;;;;;;22.98;100.00;96856.88;5017515;28;20244;-67
2021/08/01 09:02:17;;;;;;;2.40;2.20;;;;;;;23.11;100.00;96881.84;5002975;28;20294;-66
2021/08/01 09:04:44;;;;;;;3.37;2.20;;;;;;;23.12;100.00;96886.13;5000164;28;20225;-67
2021/08/01 09:07:10;;;;;;;2.40;2.20;;;;;;;23.11;100.00;96892.09;4998459;28;20199;-67
2021/08/01 09:09:37;;;;;;;2.60;2.40;;;;;;;23.00;100.00;96875.72;5016861;28;20666;-67
2021/08/01 09:12:04;;;;;;;2.47;2.27;;;;;;;23.11;100.00;96892.09;5013535;28;20746;-66
2021/08/01 09:14:30;;;;;;;2.50;2.30;;;;;;;22.99;100.00;96871.44;5016452;28;20234;-67
2021/08/01 09:16:57;;;;;;;2.50;2.30;;;;;;;23.13;100.00;96890.44;5016088;28;20609;-66
2021/08/01 09:19:32;;;;;;;2.73;2.30;;;;;;;23.15;100.00;96891.31;5017899;28;20221;-66
2021/08/01 09:22:19;;;;;;;2.40;2.20;;;;;;;23.08;100.00;96878.38;5012924;28;20653;-66
2021/08/01 09:24:48;;;;;;;3.03;2.27;;;;;;;23.14;100.00;96897.28;5015629;28;20299;-66
2021/08/01 09:27:34;;;;;;;3.20;2.27;;;;;;;23.07;100.00;96889.50;5014722;28;20213;-66
2021/08/01 09:30:02;;;;;;;2.30;2.13;;;;;;;23.21;100.00;96904.19;4972118;28;20319;-63
2021/08/01 09:32:44;;;;;;;2.40;2.20;;;;;;;23.23;100.00;96909.34;5013344;28;20620;-66
2021/08/01 09:35:21;;;;;;;2.70;2.50;;;;;;;23.11;100.00;96907.50;4993896;28;20234;-66
2021/08/01 09:37:57;;;;;;;2.37;2.07;;;;;;;23.18;100.00;96906.72;4996061;28;20235;-66
2021/08/01 09:40:28;;;;;;;2.47;2.20;;;;;;;23.26;100.00;96914.53;4998510;28;20774;-67
2021/08/01 09:43:04;;;;;;;2.23;2.03;;;;;;;23.26;100.00;96917.09;5016655;28;20651;-67
2021/08/01 09:45:31;;;;;;;2.67;2.07;;;;;;;23.21;100.00;96896.50;5019486;28;20260;-66
2021/08/01 09:48:13;;;;;;;2.60;2.40;;;;;;;23.21;100.00;96893.09;4992090;28;20248;-65
2021/08/01 09:51:01;;;;;;;3.13;2.30;;;;;;;23.30;100.00;96900.94;4998210;28;20684;-66
2021/08/01 09:53:28;;;;;;;3.80;2.10;;;;;;;23.30;100.00;96890.69;5001929;28;20291;-66
2021/08/01 09:56:11;;;;;;;3.80;2.30;;;;;;;23.30;100.00;96896.66;5019013;28;20218;-67
2021/08/01 09:58:38;;;;;;;2.03;1.93;;;;;;;23.24;100.00;96880.34;5006844;28;20244;-65
2021/08/01 10:01:05;;;;;;;2.33;2.00;;;;;;;23.31;100.00;96893.28;4987235;28;20223;-65
2021/08/01 10:03:39;;;;;;;2.43;2.23;;;;;;;23.19;100.00;96875.13;5020024;28;20232;-67
2021/08/01 10:06:07;;;;;;;2.50;2.30;;;;;;;23.32;100.00;96892.41;4993284;28;20260;-67
2021/08/01 10:08:38;;;;;;;2.60;2.40;;;;;;;23.32;100.00;96892.41;5003777;28;20630;-66
2021/08/01 10:11:12;;;;;;;2.80;2.50;;;;;;;23.35;100.00;96889.88;5008476;28;20226;-67
2021/08/01 10:13:39;;;;;;;2.50;2.30;;;;;;;23.36;100.00;96893.31;5014701;28;20240;-66
2021/08/01 10:16:07;;;;;;;2.40;2.20;;;;;;;23.03;100.00;96832.19;5017435;28;20229;-66
2021/08/01 10:18:34;;;;;;;2.47;2.10;;;;;;;23.31;100.00;96877.88;5016767;28;20206;-66
2021/08/01 10:21:00;;;;;;;2.60;2.40;;;;;;;23.28;100.00;96871.84;5014656;28;20229;-66
2021/08/01 10:23:27;;;;;;;2.23;2.03;;;;;;;23.34;100.00;96877.91;5007289;28;20788;-66
2021/08/01 10:25:53;;;;;;;2.43;2.23;;;;;;;23.34;100.00;96882.19;4998780;28;20309;-65
2021/08/01 10:28:22;;;;;;;2.70;2.13;;;;;;;23.29;100.00;96865.88;5010129;28;20298;-66
2021/08/01 10:30:52;;;;;;;2.10;2.00;;;;;;;23.21;100.00;96858.06;5017708;28;20257;-67
2021/08/01 10:33:22;;;;;;;2.77;2.20;;;;;;;23.09;100.00;96829.72;4997495;28;20357;-63
2021/08/01 10:35:56;;;;;;;2.60;2.40;;;;;;;23.17;100.00;96843.47;5004072;28;20237;-67
2021/08/01 10:38:23;;;;;;;3.90;2.07;;;;;;;23.31;100.00;96857.38;4989739;28;20293;-67
2021/08/01 10:40:52;;;;;;;4.57;2.40;;;;;;;23.31;100.00;96859.06;5004935;28;20273;-67
2021/08/01 10:43:19;;;;;;;2.00;1.90;;;;;;;23.40;100.00;96874.56;5003646;28;20206;-66
2021/08/01 10:45:46;;;;;;;2.33;2.13;;;;;;;23.40;100.00;96879.69;4995069;28;20309;-66
2021/08/01 10:48:13;;;;;;;2.10;2.00;;;;;;;23.41;100.00;96870.31;5009638;28;20317;-66
2021/08/01 10:50:39;;;;;;;2.30;2.10;;;;;;;23.42;100.00;96872.00;4994139;28;20256;-66
2021/08/01 10:53:18;;;;;;;1.90;1.80;;;;;;;23.41;100.00;96870.31;5003866;28;20238;-66
2021/08/01 10:55:45;;;;;;;2.27;2.00;;;;;;;23.42;100.00;96875.44;5008546;28;20511;-67
2021/08/01 10:58:13;;;;;;;2.20;2.10;;;;;;;23.29;100.00;96842.78;5000090;28;20237;-66
2021/08/01 11:00:55;;;;;;;2.20;2.10;;;;;;;23.42;100.00;96865.19;4986473;28;20724;-67
2021/08/01 11:03:24;;;;;;;2.33;2.20;;;;;;;23.42;100.00;96870.31;5007306;28;20355;-67
2021/08/01 11:05:51;;;;;;;2.50;2.30;;;;;;;23.38;100.00;96863.41;4994145;28;20318;-67
2021/08/01 11:08:17;;;;;;;2.40;2.30;;;;;;;23.42;100.00;96863.47;5003953;28;20352;-67
2021/08/01 11:10:44;;;;;;;2.33;2.10;;;;;;;23.41;100.00;96855.75;5003535;28;20305;-66
2021/08/01 11:13:29;;;;;;;2.20;2.00;;;;;;;23.42;100.00;96860.91;5005144;28;20244;-66
2021/08/01 11:15:55;;;;;;;2.10;2.00;;;;;;;23.28;100.00;96834.25;5001165;28;20202;-67
2021/08/01 11:18:36;;;;;;;2.20;2.00;;;;;;;23.23;100.00;96820.47;4989692;28;20206;-67
2021/08/01 11:21:05;;;;;;;1.90;1.80;;;;;;;23.38;100.00;96851.47;4998867;28;20269;-67
2021/08/01 11:23:44;;;;;;;2.13;1.90;;;;;;;23.43;100.00;96859.19;5002953;28;20310;-67
2021/08/01 11:26:12;;;;;;;2.20;2.00;;;;;;;23.14;100.00;96816.94;4999353;28;20250;-66
2021/08/01 11:28:41;;;;;;;2.00;1.90;;;;;;;23.43;100.00;96869.47;5010389;28;20198;-67
2021/08/01 11:31:18;;;;;;;3.73;2.23;;;;;;;23.29;100.00;96843.66;5000606;28;20222;-67
2021/08/01 11:33:47;;;;;;;2.27;2.07;;;;;;;23.29;100.00;96841.09;4993755;28;20687;-67